aviador You're here:

KBFW Decoded Metar

SILVER BAY in MN, USA
Report Time2018-01-18 11:33:00
UTC Time2018-01-18 11:43:12
Flight Rules vfr VFR
WindCalm
Visibility9999 m
Phenomena:N/A
Clouds:Scattered 070 Hf
Scattered 090 Hf
Broken 110 Hf
Expected CloudBase > 400 ft AGL from Temp-Dew spread
Ceiling11,000 ft
Temp-8°C (ISA -21)
Dew Point-9°C (93% RH)
AAT-11.0°C
QNH1005 hPa
Density Alt-1,178 ft
Elevation1,086 ft
Report Wrong Elevation
Raw Report
METAR KBFW 181133Z AUTO 00000KT 10SM SCT070 SCT090 BKN110 M08/M09 A2969
RMK AO2=

Extra information for KBFW:More info

Metar Taf Metar & Taf Last 4 Metars F.Rules Stats Wind Profile Meteogram Temp Stats Airport Information Weather charts Add Link Nearby VenuesMetar ALERT Operation Metar Decoded Social comments

AIRNAV info for KBFW